createdAt,value
2022-11-13T00:01:18.406Z,8.80
2022-11-13T00:03:45.388Z,6.78
2022-11-13T00:06:13.305Z,7.10
2022-11-13T00:08:40.109Z,7.28
2022-11-13T00:11:12.696Z,7.55
2022-11-13T00:13:39.467Z,9.85
2022-11-13T00:16:09.732Z,9.95
2022-11-13T00:18:36.959Z,8.00
2022-11-13T00:21:16.856Z,8.15
2022-11-13T00:23:43.683Z,11.23
2022-11-13T00:26:13.920Z,12.20
2022-11-13T00:28:40.421Z,10.70
2022-11-13T00:31:08.984Z,10.63
2022-11-13T00:34:02.374Z,7.60
2022-11-13T00:36:26.548Z,8.07
2022-11-13T00:38:54.080Z,7.97
2022-11-13T00:41:21.079Z,10.43
2022-11-13T00:43:47.552Z,7.65
2022-11-13T00:46:15.589Z,8.23
2022-11-13T00:48:42.095Z,8.68
2022-11-13T00:51:08.675Z,6.53
2022-11-13T00:53:35.312Z,7.65
2022-11-13T00:56:01.843Z,7.45
2022-11-13T00:58:28.797Z,8.73
2022-11-13T01:00:55.926Z,8.38
2022-11-13T01:03:22.390Z,9.02
2022-11-13T01:05:48.950Z,10.05
2022-11-13T01:08:16.379Z,7.80
2022-11-13T01:10:53.116Z,7.90
2022-11-13T01:13:20.698Z,7.25
2022-11-13T01:15:47.243Z,7.68
2022-11-13T01:18:13.891Z,7.07
2022-11-13T01:20:40.640Z,6.65
2022-11-13T01:23:07.179Z,7.60
2022-11-13T01:25:33.926Z,8.50
2022-11-13T01:28:03.746Z,12.38
2022-11-13T01:30:30.281Z,7.70
2022-11-13T01:32:56.720Z,7.05
2022-11-13T01:35:23.265Z,7.93
2022-11-13T01:37:49.711Z,7.05
2022-11-13T01:40:16.508Z,7.88
2022-11-13T01:42:46.131Z,7.70
2022-11-13T01:45:50.299Z,7.85
2022-11-13T01:48:16.780Z,5.78
2022-11-13T01:50:43.314Z,7.25
2022-11-13T01:53:10.104Z,7.80
2022-11-13T01:55:36.836Z,5.93
2022-11-13T01:58:06.050Z,7.03
2022-11-13T02:00:32.585Z,5.65
2022-11-13T02:02:59.138Z,7.25
2022-11-13T02:05:25.630Z,7.60
2022-11-13T02:07:52.276Z,5.43
2022-11-13T02:10:18.817Z,7.00
2022-11-13T02:12:50.235Z,4.68
2022-11-13T02:15:18.744Z,8.20
2022-11-13T02:17:50.298Z,4.43
2022-11-13T02:20:25.444Z,7.50
2022-11-13T02:22:54.659Z,5.20
2022-11-13T02:25:22.176Z,5.65
2022-11-13T02:27:50.512Z,4.97
2022-11-13T02:30:26.486Z,4.85
2022-11-13T02:32:55.048Z,5.28
2022-11-13T02:35:26.563Z,5.20
2022-11-13T02:37:54.839Z,3.85
2022-11-13T02:40:21.484Z,4.95
2022-11-13T02:42:47.939Z,5.65
2022-11-13T02:45:14.606Z,4.60
2022-11-13T02:47:41.101Z,3.45
2022-11-13T02:50:10.220Z,3.88
2022-11-13T02:52:37.000Z,7.65
2022-11-13T02:55:04.458Z,6.68
2022-11-13T02:57:31.088Z,5.50
2022-11-13T02:59:57.770Z,4.05
2022-11-13T03:02:24.305Z,3.85
2022-11-13T03:05:11.396Z,4.10
2022-11-13T03:07:37.324Z,3.80
2022-11-13T03:10:04.209Z,4.90
2022-11-13T03:12:30.833Z,4.10
2022-11-13T03:14:57.361Z,3.92
2022-11-13T03:17:23.828Z,3.15
2022-11-13T03:19:50.438Z,6.18
2022-11-13T03:22:16.970Z,3.83
2022-11-13T03:24:46.816Z,3.80
2022-11-13T03:27:13.268Z,4.80
2022-11-13T03:29:39.770Z,2.63
2022-11-13T03:32:06.405Z,2.78
2022-11-13T03:34:32.875Z,3.00
2022-11-13T03:36:59.360Z,2.72
2022-11-13T03:39:26.311Z,3.10
2022-11-13T03:41:52.809Z,3.13
2022-11-13T03:44:19.308Z,2.88
2022-11-13T03:46:45.845Z,3.70
2022-11-13T03:49:12.467Z,5.53
2022-11-13T03:51:38.975Z,2.65
2022-11-13T03:54:05.518Z,3.30
2022-11-13T03:56:32.092Z,3.55
2022-11-13T03:58:58.574Z,3.45
2022-11-13T04:01:25.146Z,3.00
2022-11-13T04:03:51.663Z,3.50
2022-11-13T04:06:18.165Z,4.65
2022-11-13T04:08:44.623Z,3.08
2022-11-13T04:11:12.898Z,6.10
2022-11-13T04:13:39.609Z,6.45
2022-11-13T04:16:06.316Z,2.70
2022-11-13T04:18:33.107Z,5.63
2022-11-13T04:21:04.938Z,3.60
2022-11-13T04:23:31.592Z,8.57
2022-11-13T04:25:58.333Z,3.55
2022-11-13T04:28:24.975Z,3.38
2022-11-13T04:30:54.586Z,3.63
2022-11-13T04:33:21.409Z,2.35
2022-11-13T04:35:48.504Z,5.40
2022-11-13T04:38:15.607Z,3.22
2022-11-13T04:40:43.100Z,2.92
2022-11-13T04:43:09.774Z,3.13
2022-11-13T04:45:36.953Z,3.38
2022-11-13T04:48:03.721Z,3.78
2022-11-13T04:50:30.340Z,4.25
2022-11-13T04:52:56.899Z,2.85
2022-11-13T04:55:23.441Z,1.95
2022-11-13T04:57:51.703Z,1.50
2022-11-13T05:00:18.512Z,1.83
2022-11-13T05:02:45.015Z,2.08
2022-11-13T05:05:11.506Z,2.47
2022-11-13T05:07:38.077Z,2.00
2022-11-13T05:10:05.553Z,2.33
2022-11-13T05:12:31.985Z,1.70
2022-11-13T05:14:58.517Z,2.38
2022-11-13T05:17:24.959Z,2.63
2022-11-13T05:19:51.536Z,3.85
2022-11-13T05:22:17.985Z,1.40
2022-11-13T05:24:44.596Z,1.40
2022-11-13T05:27:16.010Z,3.40
2022-11-13T05:29:43.759Z,2.20
2022-11-13T05:32:10.297Z,1.45
2022-11-13T05:34:36.989Z,1.80
2022-11-13T05:37:03.475Z,3.33
2022-11-13T05:39:29.964Z,2.58
2022-11-13T05:41:56.468Z,1.67
2022-11-13T05:44:22.965Z,5.15
2022-11-13T05:46:49.478Z,2.20
2022-11-13T05:49:15.967Z,2.17
2022-11-13T05:51:42.478Z,4.60
2022-11-13T05:54:08.937Z,3.08
2022-11-13T05:56:36.704Z,2.50
2022-11-13T05:59:04.432Z,4.05
2022-11-13T06:01:37.007Z,2.13
2022-11-13T06:04:04.583Z,4.28
2022-11-13T06:06:31.704Z,1.90
2022-11-13T06:09:00.646Z,2.00
2022-11-13T06:11:29.241Z,2.40
2022-11-13T06:13:57.222Z,1.90
2022-11-13T06:16:27.033Z,2.15
2022-11-13T06:18:58.942Z,2.75
2022-11-13T06:21:29.756Z,2.35
2022-11-13T06:24:00.624Z,3.20
2022-11-13T06:26:33.174Z,2.65
2022-11-13T06:29:01.485Z,3.85
2022-11-13T06:31:30.993Z,3.95
2022-11-13T06:34:00.429Z,3.25
2022-11-13T06:36:30.109Z,8.00
2022-11-13T06:38:56.807Z,6.47
2022-11-13T06:41:26.014Z,4.63
2022-11-13T06:43:53.317Z,5.22
2022-11-13T06:46:23.451Z,4.32
2022-11-13T06:48:50.694Z,5.57
2022-11-13T06:51:27.160Z,4.88
2022-11-13T06:53:54.106Z,4.15
2022-11-13T06:56:21.467Z,4.10
2022-11-13T06:58:47.981Z,2.60
2022-11-13T07:01:20.902Z,3.38
2022-11-13T07:03:47.710Z,3.78
2022-11-13T07:06:24.444Z,3.95
2022-11-13T07:08:51.754Z,3.40
2022-11-13T07:11:21.172Z,3.58
2022-11-13T07:13:48.292Z,3.38
2022-11-13T07:16:17.803Z,6.70
2022-11-13T07:18:50.376Z,5.05
2022-11-13T07:21:17.254Z,4.10
2022-11-13T07:23:43.821Z,2.92
2022-11-13T07:26:13.736Z,5.57
2022-11-13T07:28:40.567Z,5.88
2022-11-13T07:31:07.539Z,10.68
2022-11-13T07:33:34.582Z,11.40
2022-11-13T07:36:01.350Z,13.30
2022-11-13T07:38:28.168Z,8.77
2022-11-13T07:40:54.949Z,6.78
2022-11-13T07:43:21.491Z,6.93
2022-11-13T07:45:54.281Z,5.97
2022-11-13T07:48:24.497Z,5.47
2022-11-13T07:50:51.476Z,11.77
2022-11-13T07:53:19.282Z,6.10
2022-11-13T07:55:46.326Z,8.95
2022-11-13T07:58:12.891Z,15.13
2022-11-13T08:00:40.158Z,9.00
2022-11-13T08:03:08.925Z,8.13
2022-11-13T08:05:35.530Z,9.88
2022-11-13T08:08:02.078Z,7.20
2022-11-13T08:10:28.905Z,11.20
2022-11-13T08:13:04.154Z,8.90
2022-11-13T08:15:31.713Z,8.32
2022-11-13T08:17:59.891Z,10.25
2022-11-13T08:20:28.023Z,9.30
2022-11-13T08:23:02.269Z,10.60
2022-11-13T08:25:29.956Z,12.20
2022-11-13T08:27:57.340Z,12.25
2022-11-13T08:30:25.901Z,13.38
2022-11-13T08:32:52.828Z,11.32
2022-11-13T08:35:21.371Z,12.38
2022-11-13T08:37:50.630Z,13.80
2022-11-13T08:40:20.022Z,11.48
2022-11-13T08:42:46.523Z,11.63
2022-11-13T08:45:13.132Z,13.07
2022-11-13T08:47:39.659Z,12.27
2022-11-13T08:50:06.787Z,12.07
2022-11-13T08:52:33.351Z,13.15
2022-11-13T08:54:59.879Z,11.15
2022-11-13T08:57:28.898Z,10.25
2022-11-13T08:59:55.404Z,12.88
2022-11-13T09:02:21.924Z,11.13
2022-11-13T09:04:48.392Z,10.88
2022-11-13T09:07:15.087Z,14.27
2022-11-13T09:09:41.563Z,12.13
2022-11-13T09:12:08.217Z,12.88
2022-11-13T09:14:36.144Z,13.10
2022-11-13T09:17:03.035Z,13.13
2022-11-13T09:19:29.542Z,14.30
2022-11-13T09:21:56.003Z,14.00
2022-11-13T09:24:22.539Z,12.02
2022-11-13T09:26:49.035Z,13.50
2022-11-13T09:29:15.550Z,13.05
2022-11-13T09:31:42.247Z,13.23
2022-11-13T09:34:08.974Z,11.27
2022-11-13T09:36:36.139Z,14.23
2022-11-13T09:39:04.345Z,13.60
2022-11-13T09:41:37.649Z,12.80
2022-11-13T09:44:13.554Z,12.63
2022-11-13T09:46:49.354Z,11.55
2022-11-13T09:49:21.621Z,13.35
2022-11-13T09:51:52.813Z,13.88
2022-11-13T09:54:20.318Z,14.53
2022-11-13T09:56:51.245Z,13.38
2022-11-13T10:00:10.592Z,14.43
2022-11-13T10:02:44.404Z,15.02
2022-11-13T10:05:41.191Z,15.65
2022-11-13T10:08:16.578Z,17.13
2022-11-13T10:11:07.072Z,16.90
2022-11-13T10:13:40.414Z,16.40
2022-11-13T10:16:38.484Z,16.52
2022-11-13T10:19:28.252Z,15.60
2022-11-13T10:22:26.512Z,15.88
2022-11-13T10:24:52.210Z,20.92
2022-11-13T10:27:19.014Z,17.15
2022-11-13T10:29:49.048Z,14.30
2022-11-13T10:32:22.102Z,15.18
2022-11-13T10:34:54.285Z,17.20
2022-11-13T10:37:45.112Z,16.95
2022-11-13T10:40:11.809Z,17.23
2022-11-13T10:42:41.225Z,17.88
2022-11-13T10:45:20.155Z,19.85
2022-11-13T10:48:04.087Z,21.08
2022-11-13T10:50:32.528Z,20.65
2022-11-13T10:53:02.431Z,20.40
2022-11-13T10:55:37.468Z,22.38
2022-11-13T10:58:13.091Z,22.67
2022-11-13T11:00:41.469Z,23.48
2022-11-13T11:03:14.004Z,21.88
2022-11-13T11:06:01.091Z,24.23
2022-11-13T11:08:37.136Z,24.63
2022-11-13T11:11:33.409Z,23.77
2022-11-13T11:14:24.361Z,26.95
2022-11-13T11:16:52.754Z,26.35
2022-11-13T11:19:24.915Z,29.95
2022-11-13T11:21:57.349Z,26.55
2022-11-13T11:24:31.037Z,29.10
2022-11-13T11:27:04.910Z,25.83
2022-11-13T11:29:46.324Z,25.92
2022-11-13T11:32:34.202Z,26.90
2022-11-13T11:35:12.088Z,28.73
2022-11-13T11:37:50.396Z,29.85
2022-11-13T11:40:21.940Z,30.92
2022-11-13T11:43:00.870Z,30.02
2022-11-13T11:45:31.583Z,31.13
2022-11-13T11:47:59.483Z,32.20
2022-11-13T11:50:54.597Z,29.42
2022-11-13T11:53:50.329Z,31.13
2022-11-13T11:56:34.632Z,30.17
2022-11-13T11:59:22.998Z,31.40
2022-11-13T12:02:08.178Z,33.65
2022-11-13T12:05:10.400Z,36.63
2022-11-13T12:07:48.948Z,32.50
2022-11-13T12:10:57.040Z,39.78
2022-11-13T12:13:31.547Z,34.80
2022-11-13T12:16:13.120Z,38.10
2022-11-13T12:18:57.646Z,39.55
2022-11-13T12:22:07.083Z,41.88
2022-11-13T12:24:39.412Z,41.22
2022-11-13T12:27:25.765Z,44.45
2022-11-13T12:30:10.913Z,43.08
2022-11-13T12:32:43.391Z,47.70
2022-11-13T12:35:21.039Z,46.10
2022-11-13T12:37:51.593Z,51.65
2022-11-13T12:40:50.583Z,44.85
2022-11-13T12:43:44.735Z,48.22
2022-11-13T12:46:12.657Z,49.25
2022-11-13T12:48:45.040Z,52.13
2022-11-13T12:51:14.609Z,53.40
2022-11-13T12:53:52.309Z,59.42
2022-11-13T12:56:24.774Z,52.97
2022-11-13T12:59:28.652Z,47.63
2022-11-13T13:01:49.342Z,52.40
2022-11-13T13:05:13.324Z,54.35
2022-11-13T13:07:45.900Z,53.28
2022-11-13T13:10:41.195Z,59.92
2022-11-13T13:13:31.711Z,47.75
2022-11-13T13:16:07.349Z,49.83
2022-11-13T13:18:36.787Z,58.97
2022-11-13T13:21:04.215Z,55.80
2022-11-13T13:23:39.791Z,50.03
2022-11-13T13:26:15.377Z,152.55
2022-11-13T13:29:01.051Z,63.03
2022-11-13T13:31:30.430Z,52.90
2022-11-13T13:34:21.212Z,45.65
2022-11-13T13:37:01.461Z,49.42
2022-11-13T13:39:52.282Z,73.22
2022-11-13T13:42:43.678Z,76.03
2022-11-13T13:45:25.936Z,60.77
2022-11-13T13:47:54.887Z,47.47
2022-11-13T13:50:31.632Z,47.63
2022-11-13T13:52:59.659Z,44.75
2022-11-13T13:55:33.960Z,44.72
2022-11-13T13:58:05.683Z,52.13
2022-11-13T14:02:59.342Z,87.88
2022-11-13T14:05:35.014Z,55.45
2022-11-13T14:08:07.387Z,134.05
2022-11-13T14:10:36.273Z,112.80
2022-11-13T14:13:03.945Z,67.90
2022-11-13T14:15:32.655Z,55.15
2022-11-13T14:18:05.426Z,153.25
2022-11-13T14:20:43.803Z,80.45
2022-11-13T14:23:23.031Z,113.10
2022-11-13T14:25:50.256Z,130.15
2022-11-13T14:28:22.702Z,279.83
2022-11-13T14:31:07.949Z,154.60
2022-11-13T14:33:40.694Z,191.55
2022-11-13T14:36:07.506Z,255.00
2022-11-13T14:38:36.929Z,112.80
2022-11-13T14:41:04.480Z,111.25
2022-11-13T14:43:33.146Z,90.75
2022-11-13T14:46:02.079Z,83.72
2022-11-13T14:48:31.380Z,171.10
2022-11-13T14:51:05.987Z,101.15
2022-11-13T14:53:35.666Z,78.00
2022-11-13T14:56:04.862Z,164.57
2022-11-13T14:58:36.737Z,138.90
2022-11-13T15:01:15.526Z,103.15
2022-11-13T15:03:43.766Z,102.57
2022-11-13T15:06:26.993Z,132.98
2022-11-13T15:08:58.241Z,181.38
2022-11-13T15:11:26.500Z,100.50
2022-11-13T15:13:53.110Z,64.03
2022-11-13T15:16:23.569Z,64.13
2022-11-13T15:18:54.216Z,68.55
2022-11-13T15:21:20.932Z,70.43
2022-11-13T15:23:47.432Z,69.93
2022-11-13T15:26:13.950Z,110.38
2022-11-13T15:28:40.467Z,86.50
2022-11-13T15:31:20.657Z,67.60
2022-11-13T15:33:48.046Z,44.75
2022-11-13T15:36:14.865Z,50.33
2022-11-13T15:38:41.434Z,78.55
2022-11-13T15:41:12.806Z,53.85
2022-11-13T15:43:45.018Z,46.30
2022-11-13T15:46:17.351Z,138.38
2022-11-13T15:48:44.971Z,113.72
2022-11-13T15:51:33.727Z,57.65
2022-11-13T15:54:03.711Z,121.00
2022-11-13T15:56:31.485Z,60.88
2022-11-13T15:58:57.988Z,68.20
2022-11-13T16:01:24.620Z,63.40
2022-11-13T16:03:51.707Z,66.00
2022-11-13T16:06:21.563Z,49.65
2022-11-13T16:08:48.606Z,88.45
2022-11-13T16:11:17.009Z,184.70
2022-11-13T16:13:43.780Z,92.10
2022-11-13T16:16:16.792Z,61.45
2022-11-13T16:18:43.293Z,81.05
2022-11-13T16:21:14.159Z,62.60
2022-11-13T16:23:40.755Z,55.78
2022-11-13T16:26:18.035Z,56.33
2022-11-13T16:29:07.650Z,53.33
2022-11-13T16:31:31.209Z,54.75
2022-11-13T16:33:57.640Z,55.60
2022-11-13T16:36:27.247Z,51.55
2022-11-13T16:38:53.712Z,68.47
2022-11-13T16:41:20.218Z,84.53
2022-11-13T16:43:46.676Z,55.35
2022-11-13T16:46:21.036Z,70.95
2022-11-13T16:48:48.014Z,59.78
2022-11-13T16:51:17.106Z,56.15
2022-11-13T16:53:43.920Z,50.80
2022-11-13T16:56:16.274Z,64.90
2022-11-13T16:58:42.962Z,78.10
2022-11-13T17:01:19.959Z,62.97
2022-11-13T17:03:46.516Z,60.80
2022-11-13T17:06:21.010Z,84.57
2022-11-13T17:08:51.816Z,71.40
2022-11-13T17:11:18.889Z,106.85
2022-11-13T17:14:02.162Z,133.25
2022-11-13T17:16:30.437Z,77.80
2022-11-13T17:18:58.133Z,75.38
2022-11-13T17:21:28.328Z,84.55
2022-11-13T17:24:02.472Z,58.53
2022-11-13T17:26:30.975Z,60.90
2022-11-13T17:28:59.866Z,102.70
2022-11-13T17:31:26.768Z,64.68
2022-11-13T17:33:54.094Z,76.50
2022-11-13T17:36:21.392Z,86.65
2022-11-13T17:38:48.364Z,67.38
2022-11-13T17:41:16.496Z,65.72
2022-11-13T17:43:43.418Z,59.33
2022-11-13T17:46:15.386Z,60.72
2022-11-13T17:48:43.109Z,59.70
2022-11-13T17:51:14.792Z,58.97
2022-11-13T17:53:41.649Z,53.35
2022-11-13T17:56:11.663Z,55.65
2022-11-13T17:58:39.903Z,62.15
2022-11-13T18:01:10.286Z,60.55
2022-11-13T18:03:36.901Z,64.57
2022-11-13T18:06:08.443Z,60.38
2022-11-13T18:08:37.626Z,53.50
2022-11-13T18:11:09.622Z,54.20
2022-11-13T18:16:10.287Z,46.05
2022-11-13T18:18:36.947Z,48.83
2022-11-13T18:21:23.406Z,46.63
2022-11-13T18:24:03.957Z,43.67
2022-11-13T18:26:31.644Z,43.85
2022-11-13T18:28:58.680Z,47.67
2022-11-13T18:31:25.349Z,49.80
2022-11-13T18:33:52.760Z,53.50
2022-11-13T18:36:19.651Z,50.13
2022-11-13T18:38:46.441Z,55.22
2022-11-13T18:41:15.757Z,58.25
2022-11-13T18:43:44.242Z,62.38
2022-11-13T18:46:12.235Z,70.05
2022-11-13T18:48:40.404Z,66.22
2022-11-13T18:51:15.568Z,61.50
2022-11-13T18:53:45.506Z,60.83
2022-11-13T18:56:15.575Z,66.38
2022-11-13T18:58:43.757Z,65.70
2022-11-13T19:01:22.349Z,62.30
2022-11-13T19:04:16.150Z,63.22
2022-11-13T19:06:38.307Z,67.35
2022-11-13T19:09:08.073Z,63.92
2022-11-13T19:11:34.564Z,64.80
2022-11-13T19:14:01.040Z,61.63
2022-11-13T19:16:33.172Z,66.57
2022-11-13T19:19:03.579Z,67.85
2022-11-13T19:21:31.834Z,65.35
2022-11-13T19:23:58.698Z,64.07
2022-11-13T19:26:26.129Z,69.57
2022-11-13T19:28:53.938Z,67.15
2022-11-13T19:31:22.912Z,71.47
2022-11-13T19:34:00.544Z,67.85
2022-11-13T19:36:28.631Z,67.38
2022-11-13T19:38:56.330Z,65.80
2022-11-13T19:41:23.930Z,61.38
2022-11-13T19:43:50.512Z,63.58
2022-11-13T19:46:18.501Z,59.72
2022-11-13T19:48:48.611Z,61.92
2022-11-13T19:51:17.976Z,60.90
2022-11-13T19:53:47.581Z,59.42
2022-11-13T19:56:16.389Z,65.75
2022-11-13T19:58:44.476Z,65.90
2022-11-13T20:01:13.742Z,64.60
2022-11-13T20:03:40.380Z,67.72
2022-11-13T20:06:08.064Z,63.53
2022-11-13T20:08:41.138Z,61.53
2022-11-13T20:11:10.972Z,54.15
2022-11-13T20:13:38.766Z,52.33
2022-11-13T20:16:06.765Z,52.50
2022-11-13T20:18:33.320Z,50.92
2022-11-13T20:21:00.367Z,54.17
2022-11-13T20:23:30.479Z,56.25
2022-11-13T20:26:05.300Z,53.08
2022-11-13T20:28:32.299Z,51.90
2022-11-13T20:31:16.469Z,51.40
2022-11-13T20:33:43.569Z,51.20
2022-11-13T20:36:10.457Z,53.47
2022-11-13T20:38:37.435Z,54.60
2022-11-13T20:41:05.045Z,49.90
2022-11-13T20:43:31.534Z,49.88
2022-11-13T20:46:09.201Z,49.95
2022-11-13T20:48:36.284Z,50.05
2022-11-13T20:51:10.868Z,49.70
2022-11-13T20:53:37.593Z,52.63
2022-11-13T20:56:04.552Z,52.58
2022-11-13T20:58:31.789Z,49.97
2022-11-13T21:01:07.001Z,50.13
2022-11-13T21:03:39.901Z,52.72
2022-11-13T21:06:10.004Z,55.28
2022-11-13T21:08:36.614Z,53.95
2022-11-13T21:11:06.015Z,51.53
2022-11-13T21:13:33.249Z,54.95
2022-11-13T21:15:59.787Z,51.97
2022-11-13T21:18:26.596Z,53.00
2022-11-13T21:20:53.332Z,51.67
2022-11-13T21:23:19.833Z,51.15
2022-11-13T21:25:46.358Z,51.15
2022-11-13T21:28:12.849Z,53.58
2022-11-13T21:30:39.315Z,52.88
2022-11-13T21:33:05.796Z,52.15
2022-11-13T21:35:32.324Z,49.38
2022-11-13T21:37:58.892Z,55.15
2022-11-13T21:40:25.363Z,54.72
2022-11-13T21:42:51.871Z,50.17
2022-11-13T21:45:18.341Z,52.85
2022-11-13T21:47:44.854Z,50.95
2022-11-13T21:50:11.384Z,50.85
2022-11-13T21:52:37.912Z,59.63
2022-11-13T21:55:04.696Z,64.13
2022-11-13T21:57:31.377Z,65.35
2022-11-13T21:59:57.863Z,63.50
2022-11-13T22:02:24.464Z,61.13
2022-11-13T22:04:50.991Z,62.42
2022-11-13T22:07:19.433Z,60.22
2022-11-13T22:09:46.462Z,66.18
2022-11-13T22:12:18.009Z,63.42
2022-11-13T22:14:47.428Z,62.55
2022-11-13T22:17:13.866Z,63.58
2022-11-13T22:19:40.429Z,66.78
2022-11-13T22:22:06.907Z,64.43
2022-11-13T22:24:33.458Z,63.55
2022-11-13T22:27:02.872Z,60.83
2022-11-13T22:29:29.380Z,64.22
2022-11-13T22:31:55.845Z,64.90
2022-11-13T22:34:22.346Z,58.85
2022-11-13T22:36:48.807Z,62.63
2022-11-13T22:39:15.385Z,60.80
2022-11-13T22:41:41.828Z,61.65
2022-11-13T22:44:12.462Z,59.95
2022-11-13T22:46:39.110Z,67.15
2022-11-13T22:49:09.308Z,66.05
2022-11-13T22:51:38.464Z,66.57
2022-11-13T22:54:14.921Z,70.97
2022-11-13T22:56:44.291Z,66.47
2022-11-13T22:59:12.281Z,70.13
2022-11-13T23:01:40.281Z,76.25
2022-11-13T23:04:12.010Z,68.78
2022-11-13T23:06:38.616Z,70.40
2022-11-13T23:09:06.448Z,73.88
2022-11-13T23:11:40.313Z,76.18
2022-11-13T23:14:13.719Z,66.53
2022-11-13T23:16:40.282Z,66.75
2022-11-13T23:19:06.981Z,68.90
2022-11-13T23:21:33.678Z,65.55
2022-11-13T23:24:03.763Z,67.22
2022-11-13T23:26:30.318Z,69.00
2022-11-13T23:28:57.182Z,81.60
2022-11-13T23:31:24.386Z,77.45
2022-11-13T23:33:58.280Z,85.40
2022-11-13T23:36:24.814Z,82.57
2022-11-13T23:38:51.267Z,77.57
2022-11-13T23:41:17.768Z,72.45
2022-11-13T23:46:30.683Z,71.63
2022-11-13T23:48:57.255Z,73.18
2022-11-13T23:51:23.747Z,68.90
2022-11-13T23:53:50.183Z,70.47
2022-11-13T23:56:18.603Z,69.55
2022-11-13T23:58:45.081Z,70.63
